createdAt,value
2022-12-03T00:02:16.754Z,14.50
2022-12-03T00:04:43.263Z,13.87
2022-12-03T00:07:09.696Z,13.27
2022-12-03T00:09:36.127Z,12.63
2022-12-03T00:12:02.531Z,11.53
2022-12-03T00:14:28.940Z,12.00
2022-12-03T00:16:55.314Z,12.20
2022-12-03T00:19:21.717Z,16.30
2022-12-03T00:21:48.229Z,12.27
2022-12-03T00:24:14.638Z,13.07
2022-12-03T00:26:41.046Z,12.50
2022-12-03T00:29:07.430Z,11.87
2022-12-03T00:31:33.980Z,12.77
2022-12-03T00:34:00.386Z,16.57
2022-12-03T00:36:26.772Z,13.37
2022-12-03T00:38:53.155Z,16.97
2022-12-03T00:41:19.553Z,16.80
2022-12-03T00:43:45.939Z,16.07
2022-12-03T00:46:14.797Z,17.93
2022-12-03T00:48:44.609Z,16.43
2022-12-03T00:51:10.959Z,15.70
2022-12-03T00:53:37.402Z,14.17
2022-12-03T00:56:03.912Z,15.40
2022-12-03T00:58:30.299Z,12.80
2022-12-03T01:00:56.694Z,14.80
2022-12-03T01:03:23.281Z,13.53
2022-12-03T01:05:49.792Z,12.33
2022-12-03T01:08:16.243Z,14.50
2022-12-03T01:10:42.713Z,13.43
2022-12-03T01:13:09.164Z,11.53
2022-12-03T01:15:35.829Z,13.03
2022-12-03T01:18:02.322Z,13.43
2022-12-03T01:20:28.893Z,12.07
2022-12-03T01:22:55.242Z,13.40
2022-12-03T01:25:21.751Z,11.03
2022-12-03T01:27:48.172Z,14.47
2022-12-03T01:30:14.820Z,13.40
2022-12-03T01:32:41.239Z,10.80
2022-12-03T01:35:08.003Z,16.50
2022-12-03T01:37:34.387Z,13.60
2022-12-03T01:40:00.869Z,12.80
2022-12-03T01:42:31.784Z,12.67
2022-12-03T01:45:00.229Z,15.43
2022-12-03T01:47:30.574Z,15.83
2022-12-03T01:50:02.733Z,12.50
2022-12-03T01:52:34.265Z,10.93
2022-12-03T01:55:04.867Z,16.97
2022-12-03T01:58:01.413Z,13.23
2022-12-03T02:00:29.283Z,10.67
2022-12-03T02:03:02.350Z,10.70
2022-12-03T02:05:33.154Z,12.07
2022-12-03T02:08:00.792Z,10.90
2022-12-03T02:10:34.243Z,10.60
2022-12-03T02:13:07.645Z,12.00
2022-12-03T02:15:35.255Z,12.57
2022-12-03T02:18:02.206Z,9.60
2022-12-03T02:20:32.955Z,11.90
2022-12-03T02:23:21.472Z,13.47
2022-12-03T02:25:48.021Z,10.10
2022-12-03T02:28:14.787Z,13.03
2022-12-03T02:30:41.177Z,12.07
2022-12-03T02:33:07.566Z,13.17
2022-12-03T02:35:36.398Z,11.07
2022-12-03T02:38:07.457Z,11.13
2022-12-03T02:40:34.387Z,11.10
2022-12-03T02:43:03.319Z,10.23
2022-12-03T02:45:36.053Z,12.53
2022-12-03T02:48:16.706Z,13.03
2022-12-03T02:50:50.072Z,13.57
2022-12-03T02:53:26.110Z,15.47
2022-12-03T02:55:54.603Z,14.47
2022-12-03T02:58:22.914Z,12.77
2022-12-03T03:00:51.777Z,11.77
2022-12-03T03:03:18.920Z,12.70
2022-12-03T03:05:46.356Z,14.67
2022-12-03T03:08:13.533Z,12.83
2022-12-03T03:10:41.467Z,12.77
2022-12-03T03:13:11.678Z,11.77
2022-12-03T03:15:40.502Z,12.53
2022-12-03T03:18:08.428Z,13.23
2022-12-03T03:20:35.439Z,14.37
2022-12-03T03:23:22.690Z,11.77
2022-12-03T03:25:58.618Z,13.27
2022-12-03T03:28:26.097Z,14.63
2022-12-03T03:30:52.928Z,11.07
2022-12-03T03:33:19.688Z,15.50
2022-12-03T03:35:48.113Z,15.50
2022-12-03T03:38:18.760Z,12.77
2022-12-03T03:40:46.526Z,13.20
2022-12-03T03:43:13.613Z,12.93
2022-12-03T03:45:40.257Z,13.53
2022-12-03T03:48:06.945Z,15.10
2022-12-03T03:50:34.253Z,11.60
2022-12-03T03:53:02.554Z,15.40
2022-12-03T03:55:31.007Z,14.07
2022-12-03T03:57:57.534Z,15.27
2022-12-03T04:00:24.068Z,15.50
2022-12-03T04:02:51.839Z,15.97
2022-12-03T04:05:20.602Z,14.67
2022-12-03T04:07:47.271Z,16.13
2022-12-03T04:10:33.301Z,14.47
2022-12-03T04:12:59.796Z,14.93
2022-12-03T04:15:26.557Z,12.53
2022-12-03T04:18:12.233Z,13.20
2022-12-03T04:20:38.840Z,11.30
2022-12-03T04:23:05.734Z,12.50
2022-12-03T04:25:51.285Z,13.30
2022-12-03T04:28:35.939Z,13.90
2022-12-03T04:31:24.935Z,12.00
2022-12-03T04:34:10.170Z,13.30
2022-12-03T04:36:36.611Z,12.73
2022-12-03T04:39:04.069Z,10.87
2022-12-03T04:41:30.470Z,13.23
2022-12-03T04:44:15.610Z,12.87
2022-12-03T04:46:41.962Z,13.63
2022-12-03T04:49:08.377Z,12.43
2022-12-03T04:51:34.798Z,12.90
2022-12-03T04:54:01.392Z,12.20
2022-12-03T04:56:27.847Z,12.87
2022-12-03T04:58:54.203Z,11.63
2022-12-03T05:01:20.688Z,14.23
2022-12-03T05:03:47.115Z,14.70
2022-12-03T05:06:13.543Z,15.77
2022-12-03T05:08:39.927Z,14.03
2022-12-03T05:11:06.688Z,15.33
2022-12-03T05:13:33.179Z,14.20
2022-12-03T05:15:59.673Z,13.20
2022-12-03T05:18:26.033Z,16.23
2022-12-03T05:20:53.681Z,16.33
2022-12-03T05:23:20.693Z,15.07
2022-12-03T05:25:47.213Z,12.13
2022-12-03T05:28:13.829Z,15.87
2022-12-03T05:30:40.511Z,12.43
2022-12-03T05:33:06.979Z,15.77
2022-12-03T05:35:33.430Z,14.33
2022-12-03T05:37:59.882Z,12.27
2022-12-03T05:40:26.374Z,12.27
2022-12-03T05:42:57.033Z,14.47
2022-12-03T05:45:35.334Z,15.43
2022-12-03T05:48:02.919Z,11.90
2022-12-03T05:50:32.984Z,12.83
2022-12-03T05:52:59.762Z,17.00
2022-12-03T05:55:27.534Z,11.80
2022-12-03T05:57:54.216Z,12.97
2022-12-03T06:00:26.282Z,16.57
2022-12-03T06:02:53.261Z,16.53
2022-12-03T06:05:20.811Z,15.73
2022-12-03T06:07:49.251Z,15.20
2022-12-03T06:10:18.802Z,13.50
2022-12-03T06:12:45.146Z,14.40
2022-12-03T06:15:12.208Z,14.80
2022-12-03T06:17:38.590Z,14.80
2022-12-03T06:20:05.890Z,15.20
2022-12-03T06:22:32.365Z,15.03
2022-12-03T06:25:03.546Z,14.63
2022-12-03T06:27:32.917Z,15.13
2022-12-03T06:29:59.314Z,16.43
2022-12-03T06:32:25.700Z,14.53
2022-12-03T06:34:52.241Z,14.97
2022-12-03T06:37:19.012Z,15.70
2022-12-03T06:39:45.431Z,15.97
2022-12-03T06:42:11.847Z,15.80
2022-12-03T06:44:38.298Z,15.40
2022-12-03T06:47:04.720Z,16.50
2022-12-03T06:49:31.166Z,15.63
2022-12-03T06:51:57.543Z,16.10
2022-12-03T06:54:23.971Z,15.03
2022-12-03T06:56:50.427Z,14.10
2022-12-03T06:59:16.895Z,14.00
2022-12-03T07:01:43.334Z,16.53
2022-12-03T07:04:09.971Z,16.80
2022-12-03T07:06:36.437Z,16.93
2022-12-03T07:09:02.961Z,19.70
2022-12-03T07:11:31.966Z,19.40
2022-12-03T07:14:05.440Z,17.50
2022-12-03T07:16:33.067Z,17.20
2022-12-03T07:18:59.573Z,17.47
2022-12-03T07:21:26.014Z,16.73
2022-12-03T07:23:52.452Z,20.07
2022-12-03T07:26:19.323Z,16.87
2022-12-03T07:28:46.715Z,20.47
2022-12-03T07:31:13.134Z,16.63
2022-12-03T07:33:39.656Z,16.40
2022-12-03T07:36:06.352Z,18.37
2022-12-03T07:38:32.772Z,22.70
2022-12-03T07:40:59.175Z,18.37
2022-12-03T07:43:25.707Z,20.10
2022-12-03T07:45:52.214Z,18.70
2022-12-03T07:48:18.720Z,17.13
2022-12-03T07:50:45.202Z,21.07
2022-12-03T07:53:11.570Z,21.87
2022-12-03T07:55:37.984Z,24.43
2022-12-03T07:58:04.455Z,19.73
2022-12-03T08:00:30.912Z,18.93
2022-12-03T08:02:57.576Z,21.80
2022-12-03T08:05:24.064Z,22.57
2022-12-03T08:07:50.486Z,19.83
2022-12-03T08:10:17.045Z,19.47
2022-12-03T08:12:43.400Z,22.33
2022-12-03T08:15:10.143Z,23.27
2022-12-03T08:17:39.043Z,28.47
2022-12-03T08:20:16.903Z,19.43
2022-12-03T08:22:45.241Z,25.50
2022-12-03T08:25:28.187Z,25.07
2022-12-03T08:28:00.145Z,23.07
2022-12-03T08:30:26.602Z,20.43
2022-12-03T08:32:53.876Z,21.47
2022-12-03T08:35:24.881Z,24.50
2022-12-03T08:38:12.046Z,23.63
2022-12-03T08:40:45.759Z,21.40
2022-12-03T08:43:26.219Z,24.57
2022-12-03T08:45:56.782Z,20.33
2022-12-03T08:48:33.755Z,21.07
2022-12-03T08:51:04.224Z,22.63
2022-12-03T08:53:32.575Z,23.60
2022-12-03T08:56:23.940Z,20.13
2022-12-03T08:58:57.688Z,19.33
2022-12-03T09:01:44.045Z,19.30
2022-12-03T09:04:20.966Z,19.40
2022-12-03T09:06:47.466Z,18.00
2022-12-03T09:09:13.853Z,20.53
2022-12-03T09:11:40.301Z,16.40
2022-12-03T09:14:06.738Z,21.77
2022-12-03T09:16:33.232Z,22.80
2022-12-03T09:18:59.869Z,18.73
2022-12-03T09:21:26.256Z,19.30
2022-12-03T09:23:52.667Z,20.20
2022-12-03T09:26:19.147Z,13.00
2022-12-03T09:28:48.143Z,19.77
2022-12-03T09:31:15.697Z,19.77
2022-12-03T09:33:42.895Z,25.13
2022-12-03T09:36:09.479Z,21.67
2022-12-03T09:38:36.019Z,20.33
2022-12-03T09:41:02.482Z,19.90
2022-12-03T09:44:02.654Z,20.43
2022-12-03T09:46:20.822Z,19.83
2022-12-03T09:48:47.486Z,17.57
2022-12-03T09:51:14.471Z,17.17
2022-12-03T09:53:41.643Z,21.10
2022-12-03T09:56:18.047Z,15.10
2022-12-03T09:58:44.442Z,16.70
2022-12-03T10:01:14.978Z,15.93
2022-12-03T10:03:50.569Z,24.80
2022-12-03T10:06:20.185Z,18.53
2022-12-03T10:08:49.149Z,17.03
2022-12-03T10:11:18.140Z,19.87
2022-12-03T10:13:45.624Z,18.10
2022-12-03T10:16:15.399Z,16.77
2022-12-03T10:18:47.277Z,16.43
2022-12-03T10:21:25.810Z,17.83
2022-12-03T10:24:17.065Z,18.03
2022-12-03T10:26:45.331Z,14.13
2022-12-03T10:29:17.674Z,14.27
2022-12-03T10:31:48.950Z,12.70
2022-12-03T10:34:24.232Z,13.07
2022-12-03T10:37:09.523Z,15.43
2022-12-03T10:39:56.273Z,15.83
2022-12-03T10:42:23.536Z,16.93
2022-12-03T10:44:53.815Z,16.90
2022-12-03T10:47:22.567Z,17.73
2022-12-03T10:50:02.447Z,16.43
2022-12-03T10:52:29.399Z,17.03
2022-12-03T10:54:56.268Z,17.63
2022-12-03T10:57:23.784Z,20.67
2022-12-03T10:59:50.235Z,18.43
2022-12-03T11:02:22.003Z,16.47
2022-12-03T11:04:49.274Z,16.63
2022-12-03T11:07:19.083Z,17.83
2022-12-03T11:09:47.819Z,19.20
2022-12-03T11:12:19.155Z,17.83
2022-12-03T11:14:52.189Z,19.07
2022-12-03T11:17:43.875Z,16.83
2022-12-03T11:20:25.640Z,18.57
2022-12-03T11:22:56.794Z,21.10
2022-12-03T11:25:26.239Z,14.13
2022-12-03T11:28:11.514Z,20.17
2022-12-03T11:31:01.147Z,15.40
2022-12-03T11:33:29.184Z,16.47
2022-12-03T11:36:05.109Z,15.20
2022-12-03T11:38:37.724Z,18.03
2022-12-03T11:41:25.945Z,14.03
2022-12-03T11:43:52.345Z,14.37
2022-12-03T11:46:24.703Z,12.83
2022-12-03T11:48:53.949Z,13.73
2022-12-03T11:51:23.312Z,14.50
2022-12-03T11:53:51.232Z,12.47
2022-12-03T11:56:24.003Z,14.10
2022-12-03T11:59:01.750Z,13.20
2022-12-03T12:01:41.813Z,12.03
2022-12-03T12:04:27.626Z,11.87
2022-12-03T12:06:54.078Z,15.03
2022-12-03T12:09:50.582Z,13.80
2022-12-03T12:12:32.132Z,14.25
2022-12-03T12:14:59.172Z,34.17
2022-12-03T12:17:36.435Z,16.87
2022-12-03T12:20:26.189Z,13.03
2022-12-03T12:22:54.303Z,13.37
2022-12-03T12:25:29.761Z,13.17
2022-12-03T12:27:57.474Z,16.93
2022-12-03T12:30:24.203Z,12.63
2022-12-03T12:32:52.987Z,11.80
2022-12-03T12:35:24.434Z,13.43
2022-12-03T12:38:00.102Z,14.00
2022-12-03T12:40:32.168Z,15.30
2022-12-03T12:43:04.311Z,15.57
2022-12-03T12:45:36.573Z,15.53
2022-12-03T12:48:25.015Z,11.33
2022-12-03T12:51:00.647Z,17.20
2022-12-03T12:53:37.226Z,12.27
2022-12-03T12:56:22.908Z,13.43
2022-12-03T12:59:09.460Z,15.30
2022-12-03T13:01:36.309Z,14.30
2022-12-03T13:04:20.387Z,17.77
2022-12-03T13:06:53.572Z,12.83
2022-12-03T13:09:32.795Z,14.30
2022-12-03T13:12:03.801Z,13.93
2022-12-03T13:14:34.588Z,12.00
2022-12-03T13:17:10.843Z,14.17
2022-12-03T13:19:47.614Z,11.37
2022-12-03T13:22:19.453Z,14.53
2022-12-03T13:24:50.600Z,14.10
2022-12-03T13:27:19.702Z,16.77
2022-12-03T13:29:49.600Z,18.57
2022-12-03T13:32:20.520Z,18.03
2022-12-03T13:34:47.535Z,17.25
2022-12-03T13:37:23.139Z,16.33
2022-12-03T13:39:52.156Z,15.00
2022-12-03T13:42:46.426Z,13.53
2022-12-03T13:45:15.549Z,14.67
2022-12-03T13:47:44.786Z,14.70
2022-12-03T13:50:40.849Z,13.80
2022-12-03T13:53:27.880Z,20.47
2022-12-03T13:56:20.491Z,18.67
2022-12-03T13:58:46.872Z,17.20
2022-12-03T14:01:13.375Z,16.20
2022-12-03T14:03:39.821Z,17.17
2022-12-03T14:06:06.517Z,15.10
2022-12-03T14:08:32.935Z,18.03
2022-12-03T14:11:00.878Z,16.63
2022-12-03T14:13:28.196Z,15.60
2022-12-03T14:15:55.188Z,17.00
2022-12-03T14:18:21.803Z,19.53
2022-12-03T14:20:48.291Z,15.63
2022-12-03T14:23:15.067Z,16.40
2022-12-03T14:25:43.850Z,15.80
2022-12-03T14:28:10.588Z,16.17
2022-12-03T14:30:37.170Z,16.70
2022-12-03T14:33:04.036Z,18.67
2022-12-03T14:35:30.413Z,15.30
2022-12-03T14:37:56.782Z,19.47
2022-12-03T14:40:23.250Z,15.40
2022-12-03T14:42:49.683Z,17.42
2022-12-03T14:45:16.252Z,16.67
2022-12-03T14:47:42.654Z,15.73
2022-12-03T14:50:13.997Z,15.37
2022-12-03T14:52:40.750Z,15.37
2022-12-03T14:55:07.567Z,13.10
2022-12-03T14:57:33.930Z,14.30
2022-12-03T15:00:00.395Z,16.00
2022-12-03T15:02:26.907Z,13.37
2022-12-03T15:04:53.380Z,13.67
2022-12-03T15:07:34.981Z,17.13
2022-12-03T15:10:01.500Z,14.60
2022-12-03T15:12:27.941Z,13.40
2022-12-03T15:14:54.648Z,14.70
2022-12-03T15:17:29.459Z,13.70
2022-12-03T15:19:57.542Z,15.50
2022-12-03T15:22:23.983Z,16.63
2022-12-03T15:24:50.409Z,16.90
2022-12-03T15:27:16.855Z,33.22
2022-12-03T15:29:43.302Z,19.83
2022-12-03T15:32:09.755Z,22.50
2022-12-03T15:34:36.095Z,13.10
2022-12-03T15:37:02.656Z,14.87
2022-12-03T15:39:29.644Z,18.97
2022-12-03T15:41:56.159Z,22.63
2022-12-03T15:44:22.556Z,29.90
2022-12-03T15:46:49.060Z,13.97
2022-12-03T15:49:15.463Z,17.13
2022-12-03T15:51:41.889Z,15.23
2022-12-03T15:54:08.576Z,29.80
2022-12-03T15:56:37.618Z,10.57
2022-12-03T15:59:04.659Z,12.83
2022-12-03T16:01:31.214Z,12.03
2022-12-03T16:03:57.863Z,10.03
2022-12-03T16:06:24.274Z,12.33
2022-12-03T16:08:50.686Z,12.30
2022-12-03T16:11:17.194Z,14.90
2022-12-03T16:13:43.595Z,11.13
2022-12-03T16:16:10.108Z,11.87
2022-12-03T16:18:36.653Z,12.60
2022-12-03T16:21:03.020Z,10.13
2022-12-03T16:23:29.446Z,11.07
2022-12-03T16:25:55.916Z,11.30
2022-12-03T16:28:22.395Z,9.83
2022-12-03T16:30:48.880Z,11.30
2022-12-03T16:33:15.476Z,13.90
2022-12-03T16:35:41.938Z,12.93
2022-12-03T16:38:08.365Z,12.03
2022-12-03T16:40:34.836Z,12.70
2022-12-03T16:43:03.276Z,11.13
2022-12-03T16:45:29.749Z,11.07
2022-12-03T16:47:56.231Z,11.60
2022-12-03T16:50:29.525Z,9.17
2022-12-03T16:52:57.125Z,9.80
2022-12-03T16:55:23.664Z,11.93
2022-12-03T16:57:50.020Z,11.87
2022-12-03T17:00:17.123Z,12.13
2022-12-03T17:02:43.620Z,14.30
2022-12-03T17:05:10.107Z,10.77
2022-12-03T17:07:36.526Z,13.47
2022-12-03T17:10:03.387Z,13.27
2022-12-03T17:12:37.614Z,11.17
2022-12-03T17:15:09.355Z,12.03
2022-12-03T17:17:35.985Z,14.03
2022-12-03T17:20:02.521Z,18.13
2022-12-03T17:22:29.051Z,11.60
2022-12-03T17:24:55.597Z,12.97
2022-12-03T17:27:24.701Z,12.13
2022-12-03T17:29:51.308Z,14.07
2022-12-03T17:32:17.875Z,12.00
2022-12-03T17:34:44.374Z,15.07
2022-12-03T17:37:10.744Z,11.80
2022-12-03T17:39:37.135Z,13.77
2022-12-03T17:42:03.698Z,15.03
2022-12-03T17:44:30.036Z,12.30
2022-12-03T17:46:56.485Z,14.63
2022-12-03T17:49:26.898Z,11.77
2022-12-03T17:51:56.766Z,15.67
2022-12-03T17:54:23.216Z,16.60
2022-12-03T17:56:49.637Z,15.83
2022-12-03T17:59:16.097Z,15.10
2022-12-03T18:01:43.640Z,14.47
2022-12-03T18:04:10.387Z,11.37
2022-12-03T18:06:37.177Z,12.10
2022-12-03T18:09:04.623Z,17.83
2022-12-03T18:11:31.675Z,14.47
2022-12-03T18:13:58.658Z,13.83
2022-12-03T18:16:25.101Z,15.77
2022-12-03T18:18:56.319Z,14.47
2022-12-03T18:21:24.443Z,16.37
2022-12-03T18:23:50.971Z,18.97
2022-12-03T18:26:17.367Z,18.67
2022-12-03T18:28:43.798Z,12.80
2022-12-03T18:31:14.475Z,17.20
2022-12-03T18:33:41.017Z,13.17
2022-12-03T18:36:16.048Z,17.63
2022-12-03T18:38:42.880Z,16.30
2022-12-03T18:41:09.344Z,17.93
2022-12-03T18:43:36.102Z,18.47
2022-12-03T18:46:04.506Z,17.00
2022-12-03T18:48:30.914Z,16.73
2022-12-03T18:50:57.362Z,17.27
2022-12-03T18:53:23.768Z,14.50
2022-12-03T18:55:50.279Z,16.13
2022-12-03T18:58:16.647Z,13.90
2022-12-03T19:00:43.264Z,17.97
2022-12-03T19:03:10.104Z,17.90
2022-12-03T19:05:36.570Z,17.27
2022-12-03T19:08:03.686Z,17.30
2022-12-03T19:10:30.420Z,18.50
2022-12-03T19:12:57.366Z,19.27
2022-12-03T19:15:24.136Z,18.03
2022-12-03T19:17:51.114Z,18.47
2022-12-03T19:20:17.673Z,18.87
2022-12-03T19:22:44.098Z,17.70
2022-12-03T19:25:10.734Z,21.07
2022-12-03T19:27:37.186Z,17.97
2022-12-03T19:30:05.217Z,16.37
2022-12-03T19:32:31.664Z,20.03
2022-12-03T19:34:58.242Z,17.27
2022-12-03T19:37:24.837Z,17.97
2022-12-03T19:39:54.541Z,18.23
2022-12-03T19:42:21.293Z,17.60
2022-12-03T19:44:47.677Z,17.50
2022-12-03T19:47:14.106Z,21.03
2022-12-03T19:49:40.552Z,18.67
2022-12-03T19:52:06.943Z,18.20
2022-12-03T19:54:33.419Z,19.03
2022-12-03T19:56:59.925Z,21.90
2022-12-03T19:59:26.371Z,19.00
2022-12-03T20:01:53.051Z,18.93
2022-12-03T20:04:32.101Z,17.37
2022-12-03T20:08:09.617Z,20.97
2022-12-03T20:10:58.311Z,24.00
2022-12-03T20:14:18.868Z,18.93
2022-12-03T20:16:52.869Z,23.07
2022-12-03T20:19:32.174Z,23.67
2022-12-03T20:22:07.750Z,18.67
2022-12-03T20:24:49.666Z,18.77
2022-12-03T20:27:23.792Z,19.73
2022-12-03T20:30:57.392Z,20.67
2022-12-03T20:33:49.919Z,19.13
2022-12-03T20:37:08.784Z,21.13
2022-12-03T20:42:33.760Z,16.50
2022-12-03T20:45:20.194Z,19.03
2022-12-03T20:47:58.001Z,18.70
2022-12-03T20:50:43.394Z,17.80
2022-12-03T20:53:27.433Z,18.23
2022-12-03T20:56:15.387Z,20.50
2022-12-03T20:59:03.227Z,21.70
2022-12-03T21:01:36.731Z,23.23
2022-12-03T21:04:34.270Z,19.57
2022-12-03T21:07:17.064Z,20.27
2022-12-03T21:10:08.216Z,19.23
2022-12-03T21:12:42.666Z,22.13
2022-12-03T21:15:21.101Z,19.97
2022-12-03T21:17:51.698Z,21.10
2022-12-03T21:20:33.208Z,20.67
2022-12-03T21:23:09.637Z,20.33
2022-12-03T21:25:53.147Z,24.70
2022-12-03T21:28:56.525Z,20.17
2022-12-03T21:31:46.661Z,19.00
2022-12-03T21:34:27.347Z,22.17
2022-12-03T21:38:11.335Z,22.57
2022-12-03T21:41:13.744Z,22.00
2022-12-03T21:43:28.512Z,19.43
2022-12-03T21:47:09.407Z,23.30
2022-12-03T21:52:06.780Z,21.10
2022-12-03T21:57:42.626Z,23.60
2022-12-03T22:00:16.797Z,21.67
2022-12-03T22:02:43.658Z,21.87
2022-12-03T22:05:11.151Z,23.80
2022-12-03T22:07:39.669Z,21.43
2022-12-03T22:10:09.472Z,19.57
2022-12-03T22:12:36.169Z,19.80
2022-12-03T22:15:03.612Z,15.57
2022-12-03T22:17:30.254Z,17.77
2022-12-03T22:19:57.092Z,19.80
2022-12-03T22:22:23.592Z,19.40
2022-12-03T22:24:50.002Z,23.67
2022-12-03T22:27:16.456Z,20.53
2022-12-03T22:29:42.901Z,19.80
2022-12-03T22:32:09.388Z,18.47
2022-12-03T22:34:35.910Z,20.57
2022-12-03T22:37:02.260Z,21.07
2022-12-03T22:39:28.586Z,17.20
2022-12-03T22:41:55.079Z,20.17
2022-12-03T22:44:21.576Z,21.57
2022-12-03T22:46:48.005Z,14.23
2022-12-03T22:49:14.536Z,17.47
2022-12-03T22:51:44.403Z,20.10
2022-12-03T22:54:11.430Z,18.17
2022-12-03T22:56:38.525Z,17.30
2022-12-03T22:59:05.589Z,18.30
2022-12-03T23:01:34.278Z,15.67
2022-12-03T23:04:01.238Z,17.63
2022-12-03T23:06:30.373Z,16.30
2022-12-03T23:08:58.505Z,16.83
2022-12-03T23:11:25.725Z,15.00
2022-12-03T23:13:52.535Z,15.77
2022-12-03T23:16:22.922Z,17.63
2022-12-03T23:18:50.456Z,14.17
2022-12-03T23:21:21.550Z,19.23
2022-12-03T23:23:50.431Z,14.70
2022-12-03T23:26:17.571Z,17.33
2022-12-03T23:28:45.891Z,17.57
2022-12-03T23:31:24.194Z,15.33
2022-12-03T23:33:52.128Z,15.67
2022-12-03T23:36:19.545Z,14.77
2022-12-03T23:38:46.371Z,17.73
2022-12-03T23:41:15.383Z,18.83
2022-12-03T23:43:41.902Z,13.43
2022-12-03T23:46:11.659Z,14.63
2022-12-03T23:48:39.218Z,14.10
2022-12-03T23:51:12.218Z,14.97
2022-12-03T23:53:39.764Z,16.23
2022-12-03T23:56:07.523Z,16.77
2022-12-03T23:58:34.570Z,15.00
